sensor_id;sensor_type;location;lat;lon;timestamp;pressure;altitude;pressure_sealevel;temperature
56286;BMP180;42191;47.562;9.686;2022-08-03T00:00:13;96962.00;;;23.80
56286;BMP180;42191;47.562;9.686;2022-08-03T00:02:40;96958.00;;;23.80
56286;BMP180;42191;47.562;9.686;2022-08-03T00:05:07;96945.00;;;23.80
56286;BMP180;42191;47.562;9.686;2022-08-03T00:07:33;96946.00;;;23.80
56286;BMP180;42191;47.562;9.686;2022-08-03T00:09:59;96947.00;;;23.70
56286;BMP180;42191;47.562;9.686;2022-08-03T00:12:25;96953.00;;;23.70
56286;BMP180;42191;47.562;9.686;2022-08-03T00:14:52;96945.00;;;23.70
56286;BMP180;42191;47.562;9.686;2022-08-03T00:17:18;96945.00;;;23.60
56286;BMP180;42191;47.562;9.686;2022-08-03T00:19:44;96948.00;;;23.60
56286;BMP180;42191;47.562;9.686;2022-08-03T00:22:10;96948.00;;;23.60
56286;BMP180;42191;47.562;9.686;2022-08-03T00:24:36;96941.00;;;23.60
56286;BMP180;42191;47.562;9.686;2022-08-03T00:27:02;96940.00;;;23.50
56286;BMP180;42191;47.562;9.686;2022-08-03T00:29:28;96940.00;;;23.50
56286;BMP180;42191;47.562;9.686;2022-08-03T00:31:54;96934.00;;;23.50
56286;BMP180;42191;47.562;9.686;2022-08-03T00:34:20;96945.00;;;23.50
56286;BMP180;42191;47.562;9.686;2022-08-03T00:36:46;96928.00;;;23.40
56286;BMP180;42191;47.562;9.686;2022-08-03T00:39:13;96934.00;;;23.40
56286;BMP180;42191;47.562;9.686;2022-08-03T00:41:39;96933.00;;;23.40
56286;BMP180;42191;47.562;9.686;2022-08-03T00:44:05;96933.00;;;23.40
56286;BMP180;42191;47.562;9.686;2022-08-03T00:46:31;96923.00;;;23.40
56286;BMP180;42191;47.562;9.686;2022-08-03T00:48:57;96928.00;;;23.40
56286;BMP180;42191;47.562;9.686;2022-08-03T00:51:23;96921.00;;;23.30
56286;BMP180;42191;47.562;9.686;2022-08-03T00:53:50;96926.00;;;23.30
56286;BMP180;42191;47.562;9.686;2022-08-03T00:56:17;96924.00;;;23.30
56286;BMP180;42191;47.562;9.686;2022-08-03T00:58:44;96912.00;;;23.30
56286;BMP180;42191;47.562;9.686;2022-08-03T01:01:11;96921.00;;;23.30
56286;BMP180;42191;47.562;9.686;2022-08-03T01:03:37;96922.00;;;23.20
56286;BMP180;42191;47.562;9.686;2022-08-03T01:06:11;96917.00;;;23.20
56286;BMP180;42191;47.562;9.686;2022-08-03T01:12:07;96919.00;;;23.10
56286;BMP180;42191;47.562;9.686;2022-08-03T01:14:48;96921.00;;;23.10
56286;BMP180;42191;47.562;9.686;2022-08-03T01:27:44;96920.00;;;22.90
56286;BMP180;42191;47.562;9.686;2022-08-03T01:30:16;96918.00;;;22.90
56286;BMP180;42191;47.562;9.686;2022-08-03T01:33:02;96919.00;;;22.90
56286;BMP180;42191;47.562;9.686;2022-08-03T01:38:13;96919.00;;;22.80
56286;BMP180;42191;47.562;9.686;2022-08-03T01:40:41;96915.00;;;22.80
56286;BMP180;42191;47.562;9.686;2022-08-03T01:43:14;96914.00;;;22.70
56286;BMP180;42191;47.562;9.686;2022-08-03T01:45:42;96903.00;;;22.70
56286;BMP180;42191;47.562;9.686;2022-08-03T01:48:10;96910.00;;;22.70
56286;BMP180;42191;47.562;9.686;2022-08-03T01:50:37;96908.00;;;22.60
56286;BMP180;42191;47.562;9.686;2022-08-03T01:53:05;96901.00;;;22.60
56286;BMP180;42191;47.562;9.686;2022-08-03T01:55:34;96907.00;;;22.50
56286;BMP180;42191;47.562;9.686;2022-08-03T01:58:02;96913.00;;;22.50
56286;BMP180;42191;47.562;9.686;2022-08-03T02:00:30;96905.00;;;22.40
56286;BMP180;42191;47.562;9.686;2022-08-03T02:02:58;96908.00;;;22.40
56286;BMP180;42191;47.562;9.686;2022-08-03T02:05:24;96902.00;;;22.40
56286;BMP180;42191;47.562;9.686;2022-08-03T02:07:52;96912.00;;;22.30
56286;BMP180;42191;47.562;9.686;2022-08-03T02:10:19;96903.00;;;22.30
56286;BMP180;42191;47.562;9.686;2022-08-03T02:12:47;96906.00;;;22.30
56286;BMP180;42191;47.562;9.686;2022-08-03T02:15:15;96899.00;;;22.30
56286;BMP180;42191;47.562;9.686;2022-08-03T02:17:46;96900.00;;;22.30
56286;BMP180;42191;47.562;9.686;2022-08-03T02:20:13;96904.00;;;22.30
56286;BMP180;42191;47.562;9.686;2022-08-03T02:22:41;96908.00;;;22.20
56286;BMP180;42191;47.562;9.686;2022-08-03T02:25:09;96903.00;;;22.20
56286;BMP180;42191;47.562;9.686;2022-08-03T02:27:50;96900.00;;;22.20
56286;BMP180;42191;47.562;9.686;2022-08-03T02:30:19;96906.00;;;22.20
56286;BMP180;42191;47.562;9.686;2022-08-03T02:32:53;96906.00;;;22.10
56286;BMP180;42191;47.562;9.686;2022-08-03T02:35:22;96914.00;;;22.10
56286;BMP180;42191;47.562;9.686;2022-08-03T02:37:51;96907.00;;;22.10
56286;BMP180;42191;47.562;9.686;2022-08-03T02:40:20;96909.00;;;22.10
56286;BMP180;42191;47.562;9.686;2022-08-03T02:42:50;96900.00;;;22.10
56286;BMP180;42191;47.562;9.686;2022-08-03T02:45:19;96907.00;;;22.10
56286;BMP180;42191;47.562;9.686;2022-08-03T02:47:46;96901.00;;;22.10
56286;BMP180;42191;47.562;9.686;2022-08-03T02:50:15;96899.00;;;22.10
56286;BMP180;42191;47.562;9.686;2022-08-03T02:52:45;96901.00;;;22.10
56286;BMP180;42191;47.562;9.686;2022-08-03T02:55:13;96895.00;;;22.10
56286;BMP180;42191;47.562;9.686;2022-08-03T02:57:41;96896.00;;;22.00
56286;BMP180;42191;47.562;9.686;2022-08-03T03:00:09;96891.00;;;22.00
56286;BMP180;42191;47.562;9.686;2022-08-03T03:02:36;96889.00;;;22.00
56286;BMP180;42191;47.562;9.686;2022-08-03T03:05:03;96894.00;;;21.90
56286;BMP180;42191;47.562;9.686;2022-08-03T03:07:31;96892.00;;;21.90
56286;BMP180;42191;47.562;9.686;2022-08-03T03:09:57;96900.00;;;21.90
56286;BMP180;42191;47.562;9.686;2022-08-03T03:12:25;96892.00;;;21.80
56286;BMP180;42191;47.562;9.686;2022-08-03T03:14:52;96889.00;;;21.80
56286;BMP180;42191;47.562;9.686;2022-08-03T03:17:19;96892.00;;;21.80
56286;BMP180;42191;47.562;9.686;2022-08-03T03:19:46;96894.00;;;21.80
56286;BMP180;42191;47.562;9.686;2022-08-03T03:22:15;96900.00;;;21.70
56286;BMP180;42191;47.562;9.686;2022-08-03T03:24:42;96897.00;;;21.70
56286;BMP180;42191;47.562;9.686;2022-08-03T03:27:09;96892.00;;;21.70
56286;BMP180;42191;47.562;9.686;2022-08-03T03:29:36;96889.00;;;21.70
56286;BMP180;42191;47.562;9.686;2022-08-03T03:32:02;96895.00;;;21.70
56286;BMP180;42191;47.562;9.686;2022-08-03T03:34:29;96893.00;;;21.70
56286;BMP180;42191;47.562;9.686;2022-08-03T03:36:57;96886.00;;;21.70
56286;BMP180;42191;47.562;9.686;2022-08-03T03:39:23;96894.00;;;21.70
56286;BMP180;42191;47.562;9.686;2022-08-03T03:41:49;96890.00;;;21.60
56286;BMP180;42191;47.562;9.686;2022-08-03T03:44:16;96895.00;;;21.60
56286;BMP180;42191;47.562;9.686;2022-08-03T03:46:42;96894.00;;;21.60
56286;BMP180;42191;47.562;9.686;2022-08-03T03:49:10;96884.00;;;21.60
56286;BMP180;42191;47.562;9.686;2022-08-03T03:51:36;96885.00;;;21.60
56286;BMP180;42191;47.562;9.686;2022-08-03T03:54:03;96887.00;;;21.60
56286;BMP180;42191;47.562;9.686;2022-08-03T03:56:31;96892.00;;;21.60
56286;BMP180;42191;47.562;9.686;2022-08-03T03:58:58;96890.00;;;21.60
56286;BMP180;42191;47.562;9.686;2022-08-03T04:01:24;96900.00;;;21.60
56286;BMP180;42191;47.562;9.686;2022-08-03T04:03:50;96895.00;;;21.60
56286;BMP180;42191;47.562;9.686;2022-08-03T04:06:17;96905.00;;;21.60
56286;BMP180;42191;47.562;9.686;2022-08-03T04:09:03;96908.00;;;21.60
56286;BMP180;42191;47.562;9.686;2022-08-03T04:11:51;96891.00;;;21.60
56286;BMP180;42191;47.562;9.686;2022-08-03T04:14:42;96900.00;;;21.60
56286;BMP180;42191;47.562;9.686;2022-08-03T04:17:09;96898.00;;;21.60
56286;BMP180;42191;47.562;9.686;2022-08-03T04:19:44;96905.00;;;21.60
56286;BMP180;42191;47.562;9.686;2022-08-03T04:22:15;96904.00;;;21.60
56286;BMP180;42191;47.562;9.686;2022-08-03T04:25:11;96912.00;;;21.60
56286;BMP180;42191;47.562;9.686;2022-08-03T04:27:38;96902.00;;;21.70
56286;BMP180;42191;47.562;9.686;2022-08-03T04:30:06;96904.00;;;21.70
56286;BMP180;42191;47.562;9.686;2022-08-03T04:32:35;96907.00;;;21.70
56286;BMP180;42191;47.562;9.686;2022-08-03T04:35:02;96915.00;;;21.80
56286;BMP180;42191;47.562;9.686;2022-08-03T04:37:33;96911.00;;;21.80
56286;BMP180;42191;47.562;9.686;2022-08-03T04:40:02;96911.00;;;21.80
56286;BMP180;42191;47.562;9.686;2022-08-03T04:42:32;96916.00;;;21.90
56286;BMP180;42191;47.562;9.686;2022-08-03T04:44:58;96913.00;;;21.90
56286;BMP180;42191;47.562;9.686;2022-08-03T04:47:25;96907.00;;;21.90
56286;BMP180;42191;47.562;9.686;2022-08-03T04:49:52;96909.00;;;21.90
56286;BMP180;42191;47.562;9.686;2022-08-03T04:52:18;96921.00;;;22.00
56286;BMP180;42191;47.562;9.686;2022-08-03T04:54:45;96923.00;;;22.00
56286;BMP180;42191;47.562;9.686;2022-08-03T04:57:11;96922.00;;;22.10
56286;BMP180;42191;47.562;9.686;2022-08-03T04:59:37;96927.00;;;22.10
56286;BMP180;42191;47.562;9.686;2022-08-03T05:02:03;96931.00;;;22.10
56286;BMP180;42191;47.562;9.686;2022-08-03T05:04:29;96931.00;;;22.20
56286;BMP180;42191;47.562;9.686;2022-08-03T05:06:56;96939.00;;;22.20
56286;BMP180;42191;47.562;9.686;2022-08-03T05:09:22;96936.00;;;22.30
56286;BMP180;42191;47.562;9.686;2022-08-03T05:11:48;96932.00;;;22.30
56286;BMP180;42191;47.562;9.686;2022-08-03T05:14:14;96933.00;;;22.30
56286;BMP180;42191;47.562;9.686;2022-08-03T05:16:40;96941.00;;;22.40
56286;BMP180;42191;47.562;9.686;2022-08-03T05:19:06;96944.00;;;22.40
56286;BMP180;42191;47.562;9.686;2022-08-03T05:21:32;96941.00;;;22.50
56286;BMP180;42191;47.562;9.686;2022-08-03T05:23:58;96952.00;;;22.50
56286;BMP180;42191;47.562;9.686;2022-08-03T05:26:24;96941.00;;;22.60
56286;BMP180;42191;47.562;9.686;2022-08-03T05:28:50;96934.00;;;22.70
56286;BMP180;42191;47.562;9.686;2022-08-03T05:31:18;96940.00;;;22.70
56286;BMP180;42191;47.562;9.686;2022-08-03T05:33:44;96938.00;;;22.80
56286;BMP180;42191;47.562;9.686;2022-08-03T05:36:10;96936.00;;;22.80
56286;BMP180;42191;47.562;9.686;2022-08-03T05:38:37;96940.00;;;22.90
56286;BMP180;42191;47.562;9.686;2022-08-03T05:41:04;96941.00;;;23.00
56286;BMP180;42191;47.562;9.686;2022-08-03T05:43:30;96943.00;;;23.00
56286;BMP180;42191;47.562;9.686;2022-08-03T05:45:56;96939.00;;;23.10
56286;BMP180;42191;47.562;9.686;2022-08-03T05:48:24;96936.00;;;23.20
56286;BMP180;42191;47.562;9.686;2022-08-03T05:50:50;96945.00;;;23.30
56286;BMP180;42191;47.562;9.686;2022-08-03T05:53:16;96947.00;;;23.30
56286;BMP180;42191;47.562;9.686;2022-08-03T05:55:42;96936.00;;;23.40
56286;BMP180;42191;47.562;9.686;2022-08-03T05:58:08;96926.00;;;23.50
56286;BMP180;42191;47.562;9.686;2022-08-03T06:00:34;96944.00;;;23.60
56286;BMP180;42191;47.562;9.686;2022-08-03T06:03:00;96938.00;;;23.60
56286;BMP180;42191;47.562;9.686;2022-08-03T06:05:27;96939.00;;;23.70
56286;BMP180;42191;47.562;9.686;2022-08-03T06:07:53;96939.00;;;23.80
56286;BMP180;42191;47.562;9.686;2022-08-03T06:10:20;96940.00;;;23.90
56286;BMP180;42191;47.562;9.686;2022-08-03T06:12:46;96943.00;;;24.00
56286;BMP180;42191;47.562;9.686;2022-08-03T06:15:14;96939.00;;;24.00
56286;BMP180;42191;47.562;9.686;2022-08-03T06:17:51;96941.00;;;24.10
56286;BMP180;42191;47.562;9.686;2022-08-03T06:20:18;96948.00;;;24.20
56286;BMP180;42191;47.562;9.686;2022-08-03T06:22:47;96945.00;;;24.30
56286;BMP180;42191;47.562;9.686;2022-08-03T06:25:13;96950.00;;;24.30
56286;BMP180;42191;47.562;9.686;2022-08-03T06:27:39;96946.00;;;24.40
56286;BMP180;42191;47.562;9.686;2022-08-03T06:30:07;96952.00;;;24.50
56286;BMP180;42191;47.562;9.686;2022-08-03T06:32:35;96958.00;;;24.60
56286;BMP180;42191;47.562;9.686;2022-08-03T06:35:02;96949.00;;;24.70
56286;BMP180;42191;47.562;9.686;2022-08-03T06:37:28;96950.00;;;24.70
56286;BMP180;42191;47.562;9.686;2022-08-03T06:39:54;96946.00;;;24.80
56286;BMP180;42191;47.562;9.686;2022-08-03T06:42:22;96944.00;;;24.90
56286;BMP180;42191;47.562;9.686;2022-08-03T06:44:48;96944.00;;;25.00
56286;BMP180;42191;47.562;9.686;2022-08-03T06:47:14;96950.00;;;25.10
56286;BMP180;42191;47.562;9.686;2022-08-03T06:49:40;96949.00;;;25.10
56286;BMP180;42191;47.562;9.686;2022-08-03T06:52:06;96957.00;;;25.20
56286;BMP180;42191;47.562;9.686;2022-08-03T06:54:32;96963.00;;;25.30
56286;BMP180;42191;47.562;9.686;2022-08-03T06:56:58;96964.00;;;25.30
56286;BMP180;42191;47.562;9.686;2022-08-03T06:59:24;96963.00;;;25.40
56286;BMP180;42191;47.562;9.686;2022-08-03T07:01:50;96974.00;;;25.50
56286;BMP180;42191;47.562;9.686;2022-08-03T07:04:16;96971.00;;;25.50
56286;BMP180;42191;47.562;9.686;2022-08-03T07:06:43;96966.00;;;25.60
56286;BMP180;42191;47.562;9.686;2022-08-03T07:09:09;96966.00;;;25.60
56286;BMP180;42191;47.562;9.686;2022-08-03T07:11:35;96966.00;;;25.70
56286;BMP180;42191;47.562;9.686;2022-08-03T07:14:01;96971.00;;;25.80
56286;BMP180;42191;47.562;9.686;2022-08-03T07:16:27;96965.00;;;25.80
56286;BMP180;42191;47.562;9.686;2022-08-03T07:18:53;96959.00;;;25.90
56286;BMP180;42191;47.562;9.686;2022-08-03T07:21:19;96963.00;;;26.00
56286;BMP180;42191;47.562;9.686;2022-08-03T07:23:45;96965.00;;;26.10
56286;BMP180;42191;47.562;9.686;2022-08-03T07:26:11;96971.00;;;26.10
56286;BMP180;42191;47.562;9.686;2022-08-03T07:28:38;96970.00;;;26.20
56286;BMP180;42191;47.562;9.686;2022-08-03T07:31:04;96959.00;;;26.30
56286;BMP180;42191;47.562;9.686;2022-08-03T07:33:30;96971.00;;;26.30
56286;BMP180;42191;47.562;9.686;2022-08-03T07:35:56;96958.00;;;26.40
56286;BMP180;42191;47.562;9.686;2022-08-03T07:38:22;96972.00;;;26.40
56286;BMP180;42191;47.562;9.686;2022-08-03T07:40:48;96965.00;;;26.50
56286;BMP180;42191;47.562;9.686;2022-08-03T07:43:14;96967.00;;;26.50
56286;BMP180;42191;47.562;9.686;2022-08-03T07:45:42;96968.00;;;26.60
56286;BMP180;42191;47.562;9.686;2022-08-03T07:48:08;96962.00;;;26.70
56286;BMP180;42191;47.562;9.686;2022-08-03T07:50:34;96973.00;;;26.70
56286;BMP180;42191;47.562;9.686;2022-08-03T07:53:00;96964.00;;;26.80
56286;BMP180;42191;47.562;9.686;2022-08-03T07:55:26;96962.00;;;26.90
56286;BMP180;42191;47.562;9.686;2022-08-03T07:58:13;96958.00;;;26.90
56286;BMP180;42191;47.562;9.686;2022-08-03T08:00:43;96963.00;;;27.00
56286;BMP180;42191;47.562;9.686;2022-08-03T08:03:10;96963.00;;;27.10
56286;BMP180;42191;47.562;9.686;2022-08-03T08:05:36;96960.00;;;27.10
56286;BMP180;42191;47.562;9.686;2022-08-03T08:08:03;96958.00;;;27.20
56286;BMP180;42191;47.562;9.686;2022-08-03T08:10:30;96964.00;;;27.30
56286;BMP180;42191;47.562;9.686;2022-08-03T08:12:57;96962.00;;;27.40
56286;BMP180;42191;47.562;9.686;2022-08-03T08:15:24;96953.00;;;27.40
56286;BMP180;42191;47.562;9.686;2022-08-03T08:17:55;96961.00;;;27.50
56286;BMP180;42191;47.562;9.686;2022-08-03T08:20:27;96956.00;;;27.60
56286;BMP180;42191;47.562;9.686;2022-08-03T08:22:55;96958.00;;;27.60
56286;BMP180;42191;47.562;9.686;2022-08-03T08:25:22;96958.00;;;27.70
56286;BMP180;42191;47.562;9.686;2022-08-03T08:27:49;96953.00;;;27.80
56286;BMP180;42191;47.562;9.686;2022-08-03T08:30:18;96956.00;;;27.80
56286;BMP180;42191;47.562;9.686;2022-08-03T08:32:45;96953.00;;;27.90
56286;BMP180;42191;47.562;9.686;2022-08-03T08:35:12;96956.00;;;27.90
56286;BMP180;42191;47.562;9.686;2022-08-03T08:37:39;96951.00;;;28.00
56286;BMP180;42191;47.562;9.686;2022-08-03T08:40:07;96948.00;;;28.10
56286;BMP180;42191;47.562;9.686;2022-08-03T08:42:36;96956.00;;;28.10
56286;BMP180;42191;47.562;9.686;2022-08-03T08:45:02;96954.00;;;28.10
56286;BMP180;42191;47.562;9.686;2022-08-03T08:47:31;96946.00;;;28.20
56286;BMP180;42191;47.562;9.686;2022-08-03T08:49:59;96950.00;;;28.20
56286;BMP180;42191;47.562;9.686;2022-08-03T08:52:29;96951.00;;;28.20
56286;BMP180;42191;47.562;9.686;2022-08-03T08:55:04;96949.00;;;28.20
56286;BMP180;42191;47.562;9.686;2022-08-03T08:57:34;96947.00;;;28.30
56286;BMP180;42191;47.562;9.686;2022-08-03T09:00:04;96952.00;;;28.40
56286;BMP180;42191;47.562;9.686;2022-08-03T09:02:31;96951.00;;;28.50
56286;BMP180;42191;47.562;9.686;2022-08-03T09:04:58;96947.00;;;28.50
56286;BMP180;42191;47.562;9.686;2022-08-03T09:07:24;96948.00;;;28.60
56286;BMP180;42191;47.562;9.686;2022-08-03T09:09:50;96946.00;;;28.60
56286;BMP180;42191;47.562;9.686;2022-08-03T09:12:17;96953.00;;;28.70
56286;BMP180;42191;47.562;9.686;2022-08-03T09:14:43;96947.00;;;28.70
56286;BMP180;42191;47.562;9.686;2022-08-03T09:17:09;96947.00;;;28.70
56286;BMP180;42191;47.562;9.686;2022-08-03T09:19:36;96955.00;;;28.80
56286;BMP180;42191;47.562;9.686;2022-08-03T09:27:24;96948.00;;;28.90
56286;BMP180;42191;47.562;9.686;2022-08-03T09:29:51;96947.00;;;28.90
56286;BMP180;42191;47.562;9.686;2022-08-03T09:32:22;96946.00;;;28.90
56286;BMP180;42191;47.562;9.686;2022-08-03T09:34:50;96943.00;;;29.00
56286;BMP180;42191;47.562;9.686;2022-08-03T09:37:19;96946.00;;;29.00
56286;BMP180;42191;47.562;9.686;2022-08-03T09:39:46;96943.00;;;29.00
56286;BMP180;42191;47.562;9.686;2022-08-03T09:42:17;96944.00;;;29.00
56286;BMP180;42191;47.562;9.686;2022-08-03T09:44:48;96941.00;;;29.00
56286;BMP180;42191;47.562;9.686;2022-08-03T09:47:49;96939.00;;;29.10
56286;BMP180;42191;47.562;9.686;2022-08-03T09:50:09;96945.00;;;29.10
56286;BMP180;42191;47.562;9.686;2022-08-03T09:52:39;96939.00;;;29.10
56286;BMP180;42191;47.562;9.686;2022-08-03T09:55:11;96945.00;;;29.10
56286;BMP180;42191;47.562;9.686;2022-08-03T09:57:38;96936.00;;;29.20
56286;BMP180;42191;47.562;9.686;2022-08-03T10:00:10;96937.00;;;29.20
56286;BMP180;42191;47.562;9.686;2022-08-03T10:02:38;96944.00;;;29.20
56286;BMP180;42191;47.562;9.686;2022-08-03T10:05:06;96936.00;;;29.20
56286;BMP180;42191;47.562;9.686;2022-08-03T10:07:44;96932.00;;;29.20
56286;BMP180;42191;47.562;9.686;2022-08-03T10:10:10;96947.00;;;29.20
56286;BMP180;42191;47.562;9.686;2022-08-03T10:12:37;96934.00;;;29.30
56286;BMP180;42191;47.562;9.686;2022-08-03T10:15:04;96926.00;;;29.40
56286;BMP180;42191;47.562;9.686;2022-08-03T10:17:31;96933.00;;;29.40
56286;BMP180;42191;47.562;9.686;2022-08-03T10:19:57;96931.00;;;29.50
56286;BMP180;42191;47.562;9.686;2022-08-03T10:22:34;96931.00;;;29.60
56286;BMP180;42191;47.562;9.686;2022-08-03T10:27:36;96930.00;;;29.70
56286;BMP180;42191;47.562;9.686;2022-08-03T10:30:08;96930.00;;;29.70
56286;BMP180;42191;47.562;9.686;2022-08-03T10:32:41;96927.00;;;29.70
56286;BMP180;42191;47.562;9.686;2022-08-03T10:35:16;96929.00;;;29.80
56286;BMP180;42191;47.562;9.686;2022-08-03T10:40:22;96925.00;;;29.80
56286;BMP180;42191;47.562;9.686;2022-08-03T10:42:50;96924.00;;;29.80
56286;BMP180;42191;47.562;9.686;2022-08-03T10:45:23;96921.00;;;29.80
56286;BMP180;42191;47.562;9.686;2022-08-03T10:47:51;96918.00;;;29.80
56286;BMP180;42191;47.562;9.686;2022-08-03T10:50:18;96919.00;;;29.80
56286;BMP180;42191;47.562;9.686;2022-08-03T11:01:12;96911.00;;;30.00
56286;BMP180;42191;47.562;9.686;2022-08-03T11:06:21;96900.00;;;30.20
56286;BMP180;42191;47.562;9.686;2022-08-03T11:11:35;96902.00;;;30.30
56286;BMP180;42191;47.562;9.686;2022-08-03T11:16:44;96895.00;;;30.30
56286;BMP180;42191;47.562;9.686;2022-08-03T11:19:16;96898.00;;;30.40
56286;BMP180;42191;47.562;9.686;2022-08-03T11:35:10;96888.00;;;30.70
56286;BMP180;42191;47.562;9.686;2022-08-03T11:42:57;96891.00;;;30.90
56286;BMP180;42191;47.562;9.686;2022-08-03T11:45:24;96894.00;;;31.00
56286;BMP180;42191;47.562;9.686;2022-08-03T11:47:53;96888.00;;;31.00
56286;BMP180;42191;47.562;9.686;2022-08-03T11:50:20;96888.00;;;31.00
56286;BMP180;42191;47.562;9.686;2022-08-03T11:52:47;96885.00;;;31.10
56286;BMP180;42191;47.562;9.686;2022-08-03T11:55:16;96892.00;;;31.10
56286;BMP180;42191;47.562;9.686;2022-08-03T11:57:44;96887.00;;;31.10
56286;BMP180;42191;47.562;9.686;2022-08-03T12:00:30;96888.00;;;31.20
56286;BMP180;42191;47.562;9.686;2022-08-03T12:03:19;96881.00;;;31.20
56286;BMP180;42191;47.562;9.686;2022-08-03T12:05:50;96886.00;;;31.30
56286;BMP180;42191;47.562;9.686;2022-08-03T12:08:28;96882.00;;;31.30
56286;BMP180;42191;47.562;9.686;2022-08-03T12:10:56;96878.00;;;31.40
56286;BMP180;42191;47.562;9.686;2022-08-03T12:13:23;96879.00;;;31.50
56286;BMP180;42191;47.562;9.686;2022-08-03T12:18:19;96863.00;;;31.70
56286;BMP180;42191;47.562;9.686;2022-08-03T12:20:46;96867.00;;;31.70
56286;BMP180;42191;47.562;9.686;2022-08-03T12:23:13;96869.00;;;31.80
56286;BMP180;42191;47.562;9.686;2022-08-03T12:25:41;96866.00;;;31.90
56286;BMP180;42191;47.562;9.686;2022-08-03T12:30:33;96867.00;;;32.10
56286;BMP180;42191;47.562;9.686;2022-08-03T12:33:17;96859.00;;;32.20
56286;BMP180;42191;47.562;9.686;2022-08-03T12:36:00;96854.00;;;32.30
56286;BMP180;42191;47.562;9.686;2022-08-03T12:38:28;96856.00;;;32.40
56286;BMP180;42191;47.562;9.686;2022-08-03T12:41:08;96851.00;;;32.40
56286;BMP180;42191;47.562;9.686;2022-08-03T12:43:47;96855.00;;;32.40
56286;BMP180;42191;47.562;9.686;2022-08-03T12:46:20;96858.00;;;32.50
56286;BMP180;42191;47.562;9.686;2022-08-03T12:49:09;96850.00;;;32.50
56286;BMP180;42191;47.562;9.686;2022-08-03T12:55:17;96854.00;;;32.50
56286;BMP180;42191;47.562;9.686;2022-08-03T12:57:47;96853.00;;;32.60
56286;BMP180;42191;47.562;9.686;2022-08-03T13:00:19;96857.00;;;32.60
56286;BMP180;42191;47.562;9.686;2022-08-03T13:03:02;96860.00;;;32.70
56286;BMP180;42191;47.562;9.686;2022-08-03T13:05:30;96850.00;;;32.70
56286;BMP180;42191;47.562;9.686;2022-08-03T13:07:56;96860.00;;;32.80
56286;BMP180;42191;47.562;9.686;2022-08-03T13:10:31;96861.00;;;32.80
56286;BMP180;42191;47.562;9.686;2022-08-03T13:12:58;96848.00;;;32.90
56286;BMP180;42191;47.562;9.686;2022-08-03T13:15:26;96853.00;;;33.00
56286;BMP180;42191;47.562;9.686;2022-08-03T13:17:54;96841.00;;;33.20
56286;BMP180;42191;47.562;9.686;2022-08-03T13:20:21;96835.00;;;33.60
56286;BMP180;42191;47.562;9.686;2022-08-03T13:22:47;96838.00;;;34.10
56286;BMP180;42191;47.562;9.686;2022-08-03T13:25:14;96844.00;;;34.80
56286;BMP180;42191;47.562;9.686;2022-08-03T13:27:40;96836.00;;;35.50
56286;BMP180;42191;47.562;9.686;2022-08-03T13:30:07;96833.00;;;36.40
56286;BMP180;42191;47.562;9.686;2022-08-03T13:32:34;96838.00;;;37.20
56286;BMP180;42191;47.562;9.686;2022-08-03T13:35:00;96831.00;;;38.10
56286;BMP180;42191;47.562;9.686;2022-08-03T13:37:28;96831.00;;;39.00
56286;BMP180;42191;47.562;9.686;2022-08-03T13:39:54;96833.00;;;39.90
56286;BMP180;42191;47.562;9.686;2022-08-03T13:42:20;96832.00;;;40.70
56286;BMP180;42191;47.562;9.686;2022-08-03T13:44:46;96840.00;;;41.30
56286;BMP180;42191;47.562;9.686;2022-08-03T13:47:12;96824.00;;;41.80
56286;BMP180;42191;47.562;9.686;2022-08-03T13:49:38;96826.00;;;42.30
56286;BMP180;42191;47.562;9.686;2022-08-03T13:52:04;96820.00;;;42.60
56286;BMP180;42191;47.562;9.686;2022-08-03T13:54:30;96825.00;;;43.00
56286;BMP180;42191;47.562;9.686;2022-08-03T13:56:58;96829.00;;;43.30
56286;BMP180;42191;47.562;9.686;2022-08-03T13:59:25;96823.00;;;43.80
56286;BMP180;42191;47.562;9.686;2022-08-03T14:01:52;96823.00;;;44.20
56286;BMP180;42191;47.562;9.686;2022-08-03T14:04:19;96822.00;;;44.70
56286;BMP180;42191;47.562;9.686;2022-08-03T14:06:45;96831.00;;;45.10
56286;BMP180;42191;47.562;9.686;2022-08-03T14:09:15;96824.00;;;45.30
56286;BMP180;42191;47.562;9.686;2022-08-03T14:11:42;96821.00;;;45.50
56286;BMP180;42191;47.562;9.686;2022-08-03T14:14:08;96823.00;;;45.70
56286;BMP180;42191;47.562;9.686;2022-08-03T14:16:35;96827.00;;;45.90
56286;BMP180;42191;47.562;9.686;2022-08-03T14:19:02;96831.00;;;46.20
56286;BMP180;42191;47.562;9.686;2022-08-03T14:21:28;96833.00;;;46.30
56286;BMP180;42191;47.562;9.686;2022-08-03T14:23:55;96831.00;;;46.40
56286;BMP180;42191;47.562;9.686;2022-08-03T14:26:21;96836.00;;;46.60
56286;BMP180;42191;47.562;9.686;2022-08-03T14:28:48;96823.00;;;46.80
56286;BMP180;42191;47.562;9.686;2022-08-03T14:31:14;96821.00;;;46.90
56286;BMP180;42191;47.562;9.686;2022-08-03T14:33:41;96820.00;;;47.10
56286;BMP180;42191;47.562;9.686;2022-08-03T14:36:07;96821.00;;;47.20
56286;BMP180;42191;47.562;9.686;2022-08-03T14:38:33;96827.00;;;47.40
56286;BMP180;42191;47.562;9.686;2022-08-03T14:40:59;96831.00;;;47.50
56286;BMP180;42191;47.562;9.686;2022-08-03T14:43:25;96828.00;;;47.50
56286;BMP180;42191;47.562;9.686;2022-08-03T14:45:52;96823.00;;;47.60
56286;BMP180;42191;47.562;9.686;2022-08-03T14:48:20;96818.00;;;47.70
56286;BMP180;42191;47.562;9.686;2022-08-03T14:50:46;96818.00;;;47.70
56286;BMP180;42191;47.562;9.686;2022-08-03T14:53:12;96820.00;;;47.60
56286;BMP180;42191;47.562;9.686;2022-08-03T14:55:38;96819.00;;;47.60
56286;BMP180;42191;47.562;9.686;2022-08-03T14:58:05;96825.00;;;47.60
56286;BMP180;42191;47.562;9.686;2022-08-03T15:00:32;96818.00;;;47.60
56286;BMP180;42191;47.562;9.686;2022-08-03T15:02:58;96820.00;;;47.70
56286;BMP180;42191;47.562;9.686;2022-08-03T15:05:25;96822.00;;;47.70
56286;BMP180;42191;47.562;9.686;2022-08-03T15:07:51;96816.00;;;47.80
56286;BMP180;42191;47.562;9.686;2022-08-03T15:10:17;96814.00;;;47.90
56286;BMP180;42191;47.562;9.686;2022-08-03T15:12:43;96817.00;;;48.00
56286;BMP180;42191;47.562;9.686;2022-08-03T15:15:10;96813.00;;;48.10
56286;BMP180;42191;47.562;9.686;2022-08-03T15:17:36;96812.00;;;48.20
56286;BMP180;42191;47.562;9.686;2022-08-03T15:20:03;96811.00;;;48.40
56286;BMP180;42191;47.562;9.686;2022-08-03T15:22:29;96809.00;;;48.60
56286;BMP180;42191;47.562;9.686;2022-08-03T15:24:55;96807.00;;;48.70